sensor_id;sensor_type;location;lat;lon;timestamp;temperature;humidity
28438;DHT22;15667;52.376;9.708;2023-03-23T00:01:19;12.80;99.90
28438;DHT22;15667;52.376;9.708;2023-03-23T00:03:50;12.40;99.90
28438;DHT22;15667;52.376;9.708;2023-03-23T00:06:17;12.50;99.90
28438;DHT22;15667;52.376;9.708;2023-03-23T00:08:46;12.40;99.90
28438;DHT22;15667;52.376;9.708;2023-03-23T00:11:17;12.30;99.90
28438;DHT22;15667;52.376;9.708;2023-03-23T00:13:45;13.40;99.90
28438;DHT22;15667;52.376;9.708;2023-03-23T00:16:12;12.10;99.90
28438;DHT22;15667;52.376;9.708;2023-03-23T00:18:48;12.00;99.90
28438;DHT22;15667;52.376;9.708;2023-03-23T00:21:18;12.90;99.90
28438;DHT22;15667;52.376;9.708;2023-03-23T00:23:44;11.90;99.90
28438;DHT22;15667;52.376;9.708;2023-03-23T00:26:10;12.00;99.90
28438;DHT22;15667;52.376;9.708;2023-03-23T03:58:36;11.40;99.90
28438;DHT22;15667;52.376;9.708;2023-03-23T04:34:43;12.10;99.90
28438;DHT22;15667;52.376;9.708;2023-03-23T04:37:53;11.50;99.90
28438;DHT22;15667;52.376;9.708;2023-03-23T04:48:05;11.20;99.90
28438;DHT22;15667;52.376;9.708;2023-03-23T05:25:43;12.60;99.90
28438;DHT22;15667;52.376;9.708;2023-03-23T05:31:54;10.60;99.90
28438;DHT22;15667;52.376;9.708;2023-03-23T05:34:24;13.20;99.90
28438;DHT22;15667;52.376;9.708;2023-03-23T05:37:07;11.70;99.90
28438;DHT22;15667;52.376;9.708;2023-03-23T05:39:32;13.00;99.90
28438;DHT22;15667;52.376;9.708;2023-03-23T05:41:58;11.60;99.90
28438;DHT22;15667;52.376;9.708;2023-03-23T05:44:24;12.50;99.90
28438;DHT22;15667;52.376;9.708;2023-03-23T05:46:50;11.60;99.90
28438;DHT22;15667;52.376;9.708;2023-03-23T05:49:16;11.60;99.90
28438;DHT22;15667;52.376;9.708;2023-03-23T05:51:45;11.70;99.90
28438;DHT22;15667;52.376;9.708;2023-03-23T05:54:12;11.60;99.90
28438;DHT22;15667;52.376;9.708;2023-03-23T05:56:40;11.60;99.90
28438;DHT22;15667;52.376;9.708;2023-03-23T05:59:06;11.60;99.90
28438;DHT22;15667;52.376;9.708;2023-03-23T06:01:32;11.60;99.90
28438;DHT22;15667;52.376;9.708;2023-03-23T06:03:58;12.50;99.90
28438;DHT22;15667;52.376;9.708;2023-03-23T06:06:25;11.70;99.90
28438;DHT22;15667;52.376;9.708;2023-03-23T06:08:51;11.70;99.90
28438;DHT22;15667;52.376;9.708;2023-03-23T06:11:17;13.10;99.90
28438;DHT22;15667;52.376;9.708;2023-03-23T06:13:44;11.80;99.90
28438;DHT22;15667;52.376;9.708;2023-03-23T06:16:10;12.70;99.90
28438;DHT22;15667;52.376;9.708;2023-03-23T06:18:36;11.90;99.90
28438;DHT22;15667;52.376;9.708;2023-03-23T06:21:06;11.90;99.90
28438;DHT22;15667;52.376;9.708;2023-03-23T06:23:33;12.00;99.90
28438;DHT22;15667;52.376;9.708;2023-03-23T06:26:04;12.00;99.90
28438;DHT22;15667;52.376;9.708;2023-03-23T06:28:39;11.90;99.90
28438;DHT22;15667;52.376;9.708;2023-03-23T06:31:06;12.30;99.90
28438;DHT22;15667;52.376;9.708;2023-03-23T06:33:36;11.90;99.90
28438;DHT22;15667;52.376;9.708;2023-03-23T06:36:03;12.10;99.90
28438;DHT22;15667;52.376;9.708;2023-03-23T06:38:30;12.10;99.90
28438;DHT22;15667;52.376;9.708;2023-03-23T06:40:59;12.10;99.90
28438;DHT22;15667;52.376;9.708;2023-03-23T06:43:24;12.40;99.90
28438;DHT22;15667;52.376;9.708;2023-03-23T06:45:50;12.60;99.90
28438;DHT22;15667;52.376;9.708;2023-03-23T06:48:20;12.30;99.90
28438;DHT22;15667;52.376;9.708;2023-03-23T06:50:47;13.10;99.90
28438;DHT22;15667;52.376;9.708;2023-03-23T06:53:13;12.40;99.90
28438;DHT22;15667;52.376;9.708;2023-03-23T06:55:39;12.40;99.90
28438;DHT22;15667;52.376;9.708;2023-03-23T06:58:05;12.40;99.90
28438;DHT22;15667;52.376;9.708;2023-03-23T07:00:33;13.60;99.90
28438;DHT22;15667;52.376;9.708;2023-03-23T07:03:29;12.30;99.90
28438;DHT22;15667;52.376;9.708;2023-03-23T07:06:01;12.30;99.90
28438;DHT22;15667;52.376;9.708;2023-03-23T07:08:57;12.20;99.90
28438;DHT22;15667;52.376;9.708;2023-03-23T07:11:54;12.20;99.90
28438;DHT22;15667;52.376;9.708;2023-03-23T08:26:09;13.40;99.90
28438;DHT22;15667;52.376;9.708;2023-03-23T08:32:29;14.00;99.90
28438;DHT22;15667;52.376;9.708;2023-03-23T08:34:58;14.00;99.90
28438;DHT22;15667;52.376;9.708;2023-03-23T08:37:38;13.90;99.90
28438;DHT22;15667;52.376;9.708;2023-03-23T08:46:15;13.80;99.90
28438;DHT22;15667;52.376;9.708;2023-03-23T08:48:42;13.90;99.90
28438;DHT22;15667;52.376;9.708;2023-03-23T08:51:09;14.00;99.90
28438;DHT22;15667;52.376;9.708;2023-03-23T08:53:35;14.00;99.90
28438;DHT22;15667;52.376;9.708;2023-03-23T08:56:06;14.10;99.90
28438;DHT22;15667;52.376;9.708;2023-03-23T08:58:34;14.20;99.90
28438;DHT22;15667;52.376;9.708;2023-03-23T09:01:00;14.40;99.90
28438;DHT22;15667;52.376;9.708;2023-03-23T09:03:26;14.30;99.90
28438;DHT22;15667;52.376;9.708;2023-03-23T09:05:52;14.30;99.90
28438;DHT22;15667;52.376;9.708;2023-03-23T09:08:18;14.20;99.90
28438;DHT22;15667;52.376;9.708;2023-03-23T09:10:44;14.90;99.90
28438;DHT22;15667;52.376;9.708;2023-03-23T09:13:10;14.10;99.90
28438;DHT22;15667;52.376;9.708;2023-03-23T09:15:35;14.10;99.90
28438;DHT22;15667;52.376;9.708;2023-03-23T09:18:02;14.10;99.90
28438;DHT22;15667;52.376;9.708;2023-03-23T09:20:28;14.10;99.90
28438;DHT22;15667;52.376;9.708;2023-03-23T09:22:55;14.10;99.90
28438;DHT22;15667;52.376;9.708;2023-03-23T09:25:26;14.10;99.90
28438;DHT22;15667;52.376;9.708;2023-03-23T09:27:57;14.00;99.90
28438;DHT22;15667;52.376;9.708;2023-03-23T09:30:29;13.90;99.90
28438;DHT22;15667;52.376;9.708;2023-03-23T09:32:56;14.20;99.90
28438;DHT22;15667;52.376;9.708;2023-03-23T09:35:22;14.60;99.90
28438;DHT22;15667;52.376;9.708;2023-03-23T09:37:50;14.10;99.90
28438;DHT22;15667;52.376;9.708;2023-03-23T09:40:39;15.10;99.90
28438;DHT22;15667;52.376;9.708;2023-03-23T09:48:46;14.00;99.90
28438;DHT22;15667;52.376;9.708;2023-03-23T09:51:40;14.00;99.90
28438;DHT22;15667;52.376;9.708;2023-03-23T09:56:39;13.90;99.90
28438;DHT22;15667;52.376;9.708;2023-03-23T09:59:29;14.00;99.90
28438;DHT22;15667;52.376;9.708;2023-03-23T10:02:04;14.00;99.90
28438;DHT22;15667;52.376;9.708;2023-03-23T10:04:47;14.00;99.90
28438;DHT22;15667;52.376;9.708;2023-03-23T10:07:17;14.00;99.90
28438;DHT22;15667;52.376;9.708;2023-03-23T10:09:48;14.00;99.90
28438;DHT22;15667;52.376;9.708;2023-03-23T10:12:33;13.90;99.90
28438;DHT22;15667;52.376;9.708;2023-03-23T10:20:21;14.20;99.90
28438;DHT22;15667;52.376;9.708;2023-03-23T10:23:13;14.10;99.90
28438;DHT22;15667;52.376;9.708;2023-03-23T10:25:45;14.30;99.90
28438;DHT22;15667;52.376;9.708;2023-03-23T10:28:22;14.30;99.90
28438;DHT22;15667;52.376;9.708;2023-03-23T10:30:55;14.40;99.90
28438;DHT22;15667;52.376;9.708;2023-03-23T10:33:41;14.20;99.90
28438;DHT22;15667;52.376;9.708;2023-03-23T10:36:56;14.40;99.90
28438;DHT22;15667;52.376;9.708;2023-03-23T10:39:17;14.40;99.90
28438;DHT22;15667;52.376;9.708;2023-03-23T10:41:44;14.50;99.90
28438;DHT22;15667;52.376;9.708;2023-03-23T10:44:18;14.70;99.90
28438;DHT22;15667;52.376;9.708;2023-03-23T10:46:51;14.90;99.90
28438;DHT22;15667;52.376;9.708;2023-03-23T10:49:24;15.00;99.90
28438;DHT22;15667;52.376;9.708;2023-03-23T10:54:51;15.40;99.90
28438;DHT22;15667;52.376;9.708;2023-03-23T10:57:27;15.70;99.90
28438;DHT22;15667;52.376;9.708;2023-03-23T11:02:45;15.50;99.90
28438;DHT22;15667;52.376;9.708;2023-03-23T11:05:21;15.60;99.90
28438;DHT22;15667;52.376;9.708;2023-03-23T11:07:56;15.60;99.90
28438;DHT22;15667;52.376;9.708;2023-03-23T11:10:23;15.80;99.90
28438;DHT22;15667;52.376;9.708;2023-03-23T11:12:49;15.80;99.90
28438;DHT22;15667;52.376;9.708;2023-03-23T11:15:24;15.70;99.90
28438;DHT22;15667;52.376;9.708;2023-03-23T11:18:03;15.70;99.90
28438;DHT22;15667;52.376;9.708;2023-03-23T11:20:37;15.70;99.90
28438;DHT22;15667;52.376;9.708;2023-03-23T11:23:15;15.60;99.90
28438;DHT22;15667;52.376;9.708;2023-03-23T11:28:56;15.60;99.90
28438;DHT22;15667;52.376;9.708;2023-03-23T11:31:46;15.40;99.90
28438;DHT22;15667;52.376;9.708;2023-03-23T11:34:21;15.40;99.90
28438;DHT22;15667;52.376;9.708;2023-03-23T11:39:56;15.40;99.90
28438;DHT22;15667;52.376;9.708;2023-03-23T11:42:26;15.50;99.90
28438;DHT22;15667;52.376;9.708;2023-03-23T11:45:33;15.40;99.90
28438;DHT22;15667;52.376;9.708;2023-03-23T11:50:56;15.50;99.90
28438;DHT22;15667;52.376;9.708;2023-03-23T11:56:27;15.30;99.90
28438;DHT22;15667;52.376;9.708;2023-03-23T11:58:56;16.30;99.90
28438;DHT22;15667;52.376;9.708;2023-03-23T12:09:44;14.80;99.90
28438;DHT22;15667;52.376;9.708;2023-03-23T12:12:40;14.50;99.90
28438;DHT22;15667;52.376;9.708;2023-03-23T12:20:25;11.90;99.90
28438;DHT22;15667;52.376;9.708;2023-03-23T12:25:46;11.30;99.90
28438;DHT22;15667;52.376;9.708;2023-03-23T12:31:23;11.10;99.90
28438;DHT22;15667;52.376;9.708;2023-03-23T12:34:03;11.10;99.90
28438;DHT22;15667;52.376;9.708;2023-03-23T12:39:41;11.30;99.90
28438;DHT22;15667;52.376;9.708;2023-03-23T12:57:57;11.40;99.90
28438;DHT22;15667;52.376;9.708;2023-03-23T13:00:26;11.30;99.90
28438;DHT22;15667;52.376;9.708;2023-03-23T13:03:11;12.10;99.90
28438;DHT22;15667;52.376;9.708;2023-03-23T13:05:47;11.20;99.90
28438;DHT22;15667;52.376;9.708;2023-03-23T13:08:32;11.10;99.90
28438;DHT22;15667;52.376;9.708;2023-03-23T13:11:03;12.20;99.90
28438;DHT22;15667;52.376;9.708;2023-03-23T13:13:51;11.80;99.90
28438;DHT22;15667;52.376;9.708;2023-03-23T13:19:12;11.60;99.90
28438;DHT22;15667;52.376;9.708;2023-03-23T13:22:06;11.90;99.90
28438;DHT22;15667;52.376;9.708;2023-03-23T13:24:38;12.10;99.90
28438;DHT22;15667;52.376;9.708;2023-03-23T13:27:08;12.20;99.90
28438;DHT22;15667;52.376;9.708;2023-03-23T13:29:44;12.30;99.90
28438;DHT22;15667;52.376;9.708;2023-03-23T13:32:15;12.30;99.90
28438;DHT22;15667;52.376;9.708;2023-03-23T13:34:41;12.20;99.90
28438;DHT22;15667;52.376;9.708;2023-03-23T13:37:23;12.30;99.90
28438;DHT22;15667;52.376;9.708;2023-03-23T13:42:26;12.20;99.90
28438;DHT22;15667;52.376;9.708;2023-03-23T13:45:05;12.20;99.90
28438;DHT22;15667;52.376;9.708;2023-03-23T13:47:39;12.20;99.90
28438;DHT22;15667;52.376;9.708;2023-03-23T13:52:53;12.10;99.90
28438;DHT22;15667;52.376;9.708;2023-03-23T13:55:29;12.10;99.90
28438;DHT22;15667;52.376;9.708;2023-03-23T13:57:58;12.20;99.90
28438;DHT22;15667;52.376;9.708;2023-03-23T14:00:36;12.20;99.90
28438;DHT22;15667;52.376;9.708;2023-03-23T14:05:41;12.50;99.90
28438;DHT22;15667;52.376;9.708;2023-03-23T14:16:03;12.60;99.90
28438;DHT22;15667;52.376;9.708;2023-03-23T14:18:37;12.60;99.90
28438;DHT22;15667;52.376;9.708;2023-03-23T14:21:04;12.60;99.90
28438;DHT22;15667;52.376;9.708;2023-03-23T14:23:34;12.60;99.90
28438;DHT22;15667;52.376;9.708;2023-03-23T14:26:04;12.70;99.90
28438;DHT22;15667;52.376;9.708;2023-03-23T14:28:41;12.70;99.90
28438;DHT22;15667;52.376;9.708;2023-03-23T14:31:27;12.80;99.90
28438;DHT22;15667;52.376;9.708;2023-03-23T14:34:02;11.20;99.90
28438;DHT22;15667;52.376;9.708;2023-03-23T14:36:30;12.60;99.90
28438;DHT22;15667;52.376;9.708;2023-03-23T14:39:28;12.60;99.90
28438;DHT22;15667;52.376;9.708;2023-03-23T14:41:57;12.60;99.90
28438;DHT22;15667;52.376;9.708;2023-03-23T14:44:29;13.30;99.90
28438;DHT22;15667;52.376;9.708;2023-03-23T14:46:58;12.70;99.90
28438;DHT22;15667;52.376;9.708;2023-03-23T14:49:38;12.80;99.90
28438;DHT22;15667;52.376;9.708;2023-03-23T14:52:18;14.20;99.90
28438;DHT22;15667;52.376;9.708;2023-03-23T14:54:45;12.90;99.90
28438;DHT22;15667;52.376;9.708;2023-03-23T14:57:16;12.80;99.90
28438;DHT22;15667;52.376;9.708;2023-03-23T14:59:45;12.80;99.90
28438;DHT22;15667;52.376;9.708;2023-03-23T15:02:17;12.70;99.90
28438;DHT22;15667;52.376;9.708;2023-03-23T15:04:47;12.70;99.90
28438;DHT22;15667;52.376;9.708;2023-03-23T15:07:14;14.10;99.90
28438;DHT22;15667;52.376;9.708;2023-03-23T15:09:43;13.30;99.90
28438;DHT22;15667;52.376;9.708;2023-03-23T15:12:21;13.10;99.90
28438;DHT22;15667;52.376;9.708;2023-03-23T15:14:56;13.20;99.90
28438;DHT22;15667;52.376;9.708;2023-03-23T15:17:28;13.10;99.90
28438;DHT22;15667;52.376;9.708;2023-03-23T15:19:55;13.40;99.90
28438;DHT22;15667;52.376;9.708;2023-03-23T15:22:29;13.00;99.90
28438;DHT22;15667;52.376;9.708;2023-03-23T15:25:16;13.40;99.90
28438;DHT22;15667;52.376;9.708;2023-03-23T15:27:44;12.90;99.90
28438;DHT22;15667;52.376;9.708;2023-03-23T15:33:01;12.80;99.90
28438;DHT22;15667;52.376;9.708;2023-03-23T15:35:27;15.60;99.90
28438;DHT22;15667;52.376;9.708;2023-03-23T15:38:00;13.50;99.90
28438;DHT22;15667;52.376;9.708;2023-03-23T15:40:27;15.00;99.90
28438;DHT22;15667;52.376;9.708;2023-03-23T15:43:18;15.50;99.90
28438;DHT22;15667;52.376;9.708;2023-03-23T15:46:05;13.30;99.90
28438;DHT22;15667;52.376;9.708;2023-03-23T15:48:52;12.80;99.90
28438;DHT22;15667;52.376;9.708;2023-03-23T15:51:26;12.70;99.90
28438;DHT22;15667;52.376;9.708;2023-03-23T15:53:54;13.40;99.90
28438;DHT22;15667;52.376;9.708;2023-03-23T15:56:20;13.20;99.90
28438;DHT22;15667;52.376;9.708;2023-03-23T15:58:46;15.40;99.90
28438;DHT22;15667;52.376;9.708;2023-03-23T16:01:14;10.80;99.90
28438;DHT22;15667;52.376;9.708;2023-03-23T16:06:18;13.60;99.90
28438;DHT22;15667;52.376;9.708;2023-03-23T16:08:44;15.40;99.90
28438;DHT22;15667;52.376;9.708;2023-03-23T16:11:13;13.30;99.90
28438;DHT22;15667;52.376;9.708;2023-03-23T16:13:39;14.60;99.90
28438;DHT22;15667;52.376;9.708;2023-03-23T16:16:06;14.80;99.90
28438;DHT22;15667;52.376;9.708;2023-03-23T16:18:32;13.00;99.90
28438;DHT22;15667;52.376;9.708;2023-03-23T16:20:58;12.90;99.90
28438;DHT22;15667;52.376;9.708;2023-03-23T16:23:24;15.30;99.90
28438;DHT22;15667;52.376;9.708;2023-03-23T16:25:49;14.90;99.90
28438;DHT22;15667;52.376;9.708;2023-03-23T16:28:15;15.20;99.90
28438;DHT22;15667;52.376;9.708;2023-03-23T16:30:42;14.50;99.90
28438;DHT22;15667;52.376;9.708;2023-03-23T16:33:09;16.20;99.90
28438;DHT22;15667;52.376;9.708;2023-03-23T16:35:35;12.90;99.90
28438;DHT22;15667;52.376;9.708;2023-03-23T16:38:00;12.90;99.90
28438;DHT22;15667;52.376;9.708;2023-03-23T16:40:26;14.50;99.90
28438;DHT22;15667;52.376;9.708;2023-03-23T16:42:52;15.40;99.90
28438;DHT22;15667;52.376;9.708;2023-03-23T16:45:19;13.10;99.90
28438;DHT22;15667;52.376;9.708;2023-03-23T16:47:44;15.50;99.90
28438;DHT22;15667;52.376;9.708;2023-03-23T16:50:13;14.00;99.90
28438;DHT22;15667;52.376;9.708;2023-03-23T16:52:41;14.00;99.90
28438;DHT22;15667;52.376;9.708;2023-03-23T16:55:08;14.80;99.90
28438;DHT22;15667;52.376;9.708;2023-03-23T16:57:36;14.40;99.90
28438;DHT22;15667;52.376;9.708;2023-03-23T17:00:08;12.90;99.90
28438;DHT22;15667;52.376;9.708;2023-03-23T17:02:36;12.60;99.90
28438;DHT22;15667;52.376;9.708;2023-03-23T17:05:02;11.60;99.90
28438;DHT22;15667;52.376;9.708;2023-03-23T17:07:28;12.50;99.90
28438;DHT22;15667;52.376;9.708;2023-03-23T17:09:54;12.60;99.90
28438;DHT22;15667;52.376;9.708;2023-03-23T17:12:20;15.50;99.90
28438;DHT22;15667;52.376;9.708;2023-03-23T17:14:46;12.60;99.90
28438;DHT22;15667;52.376;9.708;2023-03-23T17:17:11;14.50;99.90
28438;DHT22;15667;52.376;9.708;2023-03-23T17:19:37;15.30;99.90
28438;DHT22;15667;52.376;9.708;2023-03-23T17:22:03;12.40;99.90
28438;DHT22;15667;52.376;9.708;2023-03-23T17:24:28;9.20;99.90
28438;DHT22;15667;52.376;9.708;2023-03-23T17:26:55;9.20;99.90
28438;DHT22;15667;52.376;9.708;2023-03-23T17:29:20;12.40;99.90
28438;DHT22;15667;52.376;9.708;2023-03-23T17:31:50;12.40;99.90
28438;DHT22;15667;52.376;9.708;2023-03-23T17:34:16;16.00;99.90
28438;DHT22;15667;52.376;9.708;2023-03-23T17:36:42;14.30;99.90
28438;DHT22;15667;52.376;9.708;2023-03-23T17:39:08;14.50;99.90
28438;DHT22;15667;52.376;9.708;2023-03-23T17:41:33;14.10;99.90
28438;DHT22;15667;52.376;9.708;2023-03-23T17:43:59;15.50;99.90
28438;DHT22;15667;52.376;9.708;2023-03-23T17:46:26;12.50;99.90
28438;DHT22;15667;52.376;9.708;2023-03-23T17:48:52;13.10;99.90
28438;DHT22;15667;52.376;9.708;2023-03-23T17:51:18;12.30;99.90
28438;DHT22;15667;52.376;9.708;2023-03-23T17:53:43;9.20;99.90
28438;DHT22;15667;52.376;9.708;2023-03-23T17:56:09;13.40;99.90
28438;DHT22;15667;52.376;9.708;2023-03-23T17:58:35;16.00;99.90
28438;DHT22;15667;52.376;9.708;2023-03-23T18:01:02;15.00;99.90
28438;DHT22;15667;52.376;9.708;2023-03-23T18:03:28;15.20;99.90
28438;DHT22;15667;52.376;9.708;2023-03-23T18:05:58;13.20;99.90
28438;DHT22;15667;52.376;9.708;2023-03-23T18:08:24;12.60;99.90
28438;DHT22;15667;52.376;9.708;2023-03-23T18:10:51;14.90;99.90
28438;DHT22;15667;52.376;9.708;2023-03-23T18:13:16;14.00;99.90
28438;DHT22;15667;52.376;9.708;2023-03-23T18:15:43;12.20;99.90
28438;DHT22;15667;52.376;9.708;2023-03-23T18:18:09;12.50;99.90
28438;DHT22;15667;52.376;9.708;2023-03-23T18:20:34;15.00;99.90
28438;DHT22;15667;52.376;9.708;2023-03-23T18:23:00;12.40;99.90
28438;DHT22;15667;52.376;9.708;2023-03-23T18:25:27;12.90;99.90
28438;DHT22;15667;52.376;9.708;2023-03-23T18:27:53;12.10;99.90
28438;DHT22;15667;52.376;9.708;2023-03-23T18:30:19;13.30;99.90
28438;DHT22;15667;52.376;9.708;2023-03-23T18:32:45;13.80;99.90
28438;DHT22;15667;52.376;9.708;2023-03-23T18:35:11;13.10;99.90
28438;DHT22;15667;52.376;9.708;2023-03-23T18:37:37;12.00;99.90
28438;DHT22;15667;52.376;9.708;2023-03-23T18:40:06;14.80;99.90
28438;DHT22;15667;52.376;9.708;2023-03-23T18:42:35;11.90;99.90
28438;DHT22;15667;52.376;9.708;2023-03-23T18:45:01;15.70;99.90
28438;DHT22;15667;52.376;9.708;2023-03-23T18:47:27;14.20;99.90
28438;DHT22;15667;52.376;9.708;2023-03-23T18:49:53;11.80;99.90
28438;DHT22;15667;52.376;9.708;2023-03-23T18:52:23;14.30;99.90
28438;DHT22;15667;52.376;9.708;2023-03-23T18:54:54;11.90;99.90
28438;DHT22;15667;52.376;9.708;2023-03-23T18:57:21;13.90;99.90
28438;DHT22;15667;52.376;9.708;2023-03-23T18:59:47;11.90;99.90
28438;DHT22;15667;52.376;9.708;2023-03-23T19:02:13;15.60;99.90
28438;DHT22;15667;52.376;9.708;2023-03-23T19:04:39;14.00;99.90
28438;DHT22;15667;52.376;9.708;2023-03-23T19:07:05;13.80;99.90
28438;DHT22;15667;52.376;9.708;2023-03-23T19:09:33;14.30;99.90
28438;DHT22;15667;52.376;9.708;2023-03-23T19:11:59;12.00;99.90
28438;DHT22;15667;52.376;9.708;2023-03-23T19:14:25;12.40;99.90
28438;DHT22;15667;52.376;9.708;2023-03-23T19:16:51;13.00;99.90
28438;DHT22;15667;52.376;9.708;2023-03-23T19:19:17;12.10;99.90
28438;DHT22;15667;52.376;9.708;2023-03-23T19:21:43;14.00;99.90
28438;DHT22;15667;52.376;9.708;2023-03-23T19:24:09;12.00;99.90
28438;DHT22;15667;52.376;9.708;2023-03-23T19:26:39;15.00;99.90
28438;DHT22;15667;52.376;9.708;2023-03-23T19:29:08;13.50;99.90
28438;DHT22;15667;52.376;9.708;2023-03-23T19:31:34;12.30;99.90
28438;DHT22;15667;52.376;9.708;2023-03-23T19:34:00;12.20;99.90
28438;DHT22;15667;52.376;9.708;2023-03-23T19:36:26;14.40;99.90
28438;DHT22;15667;52.376;9.708;2023-03-23T19:38:52;13.00;99.90
28438;DHT22;15667;52.376;9.708;2023-03-23T19:41:19;12.10;99.90
28438;DHT22;15667;52.376;9.708;2023-03-23T19:43:45;15.20;99.90
28438;DHT22;15667;52.376;9.708;2023-03-23T19:46:12;13.40;99.90
28438;DHT22;15667;52.376;9.708;2023-03-23T19:48:38;13.80;99.90
28438;DHT22;15667;52.376;9.708;2023-03-23T19:51:04;13.80;99.90
28438;DHT22;15667;52.376;9.708;2023-03-23T19:53:30;12.20;99.90
28438;DHT22;15667;52.376;9.708;2023-03-23T19:55:55;13.20;99.90
28438;DHT22;15667;52.376;9.708;2023-03-23T19:58:21;12.20;99.90
28438;DHT22;15667;52.376;9.708;2023-03-23T20:00:47;14.00;99.90
28438;DHT22;15667;52.376;9.708;2023-03-23T20:03:13;12.20;99.90
28438;DHT22;15667;52.376;9.708;2023-03-23T20:05:39;15.80;99.90
28438;DHT22;15667;52.376;9.708;2023-03-23T20:08:05;15.20;99.90
28438;DHT22;15667;52.376;9.708;2023-03-23T20:10:31;12.10;99.90
28438;DHT22;15667;52.376;9.708;2023-03-23T20:13:01;15.30;99.90
28438;DHT22;15667;52.376;9.708;2023-03-23T20:15:28;15.50;99.90
28438;DHT22;15667;52.376;9.708;2023-03-23T20:17:54;14.20;99.90
28438;DHT22;15667;52.376;9.708;2023-03-23T20:20:20;11.90;99.90
28438;DHT22;15667;52.376;9.708;2023-03-23T20:22:46;13.70;99.90
28438;DHT22;15667;52.376;9.708;2023-03-23T20:25:12;11.80;99.90
28438;DHT22;15667;52.376;9.708;2023-03-23T20:27:39;14.20;99.90
28438;DHT22;15667;52.376;9.708;2023-03-23T20:30:06;13.70;99.90
28438;DHT22;15667;52.376;9.708;2023-03-23T20:32:32;11.80;99.90
28438;DHT22;15667;52.376;9.708;2023-03-23T20:35:03;12.90;99.90
28438;DHT22;15667;52.376;9.708;2023-03-23T20:37:36;13.10;99.90
28438;DHT22;15667;52.376;9.708;2023-03-23T20:40:12;12.10;99.90
28438;DHT22;15667;52.376;9.708;2023-03-23T20:42:41;11.80;99.90
28438;DHT22;15667;52.376;9.708;2023-03-23T20:45:12;13.10;99.90
28438;DHT22;15667;52.376;9.708;2023-03-23T20:47:38;10.00;99.90
28438;DHT22;15667;52.376;9.708;2023-03-23T20:50:04;13.70;99.90
28438;DHT22;15667;52.376;9.708;2023-03-23T20:52:31;11.80;99.90
28438;DHT22;15667;52.376;9.708;2023-03-23T20:54:56;12.30;99.90
28438;DHT22;15667;52.376;9.708;2023-03-23T20:57:23;11.90;99.90
28438;DHT22;15667;52.376;9.708;2023-03-23T20:59:49;11.80;99.90
28438;DHT22;15667;52.376;9.708;2023-03-23T21:02:17;11.80;99.90
28438;DHT22;15667;52.376;9.708;2023-03-23T21:04:43;13.30;99.90
28438;DHT22;15667;52.376;9.708;2023-03-23T21:07:10;11.60;99.90
28438;DHT22;15667;52.376;9.708;2023-03-23T21:09:38;11.60;99.90
28438;DHT22;15667;52.376;9.708;2023-03-23T21:12:04;11.60;99.90
28438;DHT22;15667;52.376;9.708;2023-03-23T21:14:31;11.60;99.90
28438;DHT22;15667;52.376;9.708;2023-03-23T21:16:58;11.70;99.90
28438;DHT22;15667;52.376;9.708;2023-03-23T21:19:26;11.70;99.90
28438;DHT22;15667;52.376;9.708;2023-03-23T21:21:52;11.60;99.90
28438;DHT22;15667;52.376;9.708;2023-03-23T21:24:18;10.80;99.90
28438;DHT22;15667;52.376;9.708;2023-03-23T21:26:46;11.60;99.90
28438;DHT22;15667;52.376;9.708;2023-03-23T21:29:13;11.60;99.90
28438;DHT22;15667;52.376;9.708;2023-03-23T21:31:40;11.60;99.90
28438;DHT22;15667;52.376;9.708;2023-03-23T21:34:06;11.60;99.90
28438;DHT22;15667;52.376;9.708;2023-03-23T21:36:33;11.70;99.90
28438;DHT22;15667;52.376;9.708;2023-03-23T21:38:59;11.60;99.90
28438;DHT22;15667;52.376;9.708;2023-03-23T21:41:27;11.60;99.90
28438;DHT22;15667;52.376;9.708;2023-03-23T21:43:54;13.20;99.90
28438;DHT22;15667;52.376;9.708;2023-03-23T21:46:21;11.70;99.90
28438;DHT22;15667;52.376;9.708;2023-03-23T21:48:48;11.70;99.90
28438;DHT22;15667;52.376;9.708;2023-03-23T21:51:26;11.70;99.90
28438;DHT22;15667;52.376;9.708;2023-03-23T21:53:52;11.70;99.90
28438;DHT22;15667;52.376;9.708;2023-03-23T21:56:19;11.60;99.90
28438;DHT22;15667;52.376;9.708;2023-03-23T21:58:46;12.70;99.90
28438;DHT22;15667;52.376;9.708;2023-03-23T22:01:11;12.60;99.90
28438;DHT22;15667;52.376;9.708;2023-03-23T22:03:38;11.70;99.90
28438;DHT22;15667;52.376;9.708;2023-03-23T22:06:17;11.50;99.90
28438;DHT22;15667;52.376;9.708;2023-03-23T22:08:44;11.50;99.90
28438;DHT22;15667;52.376;9.708;2023-03-23T22:11:17;11.50;99.90
28438;DHT22;15667;52.376;9.708;2023-03-23T22:13:43;11.50;99.90
28438;DHT22;15667;52.376;9.708;2023-03-23T22:16:11;11.50;99.90
28438;DHT22;15667;52.376;9.708;2023-03-23T22:18:38;11.50;99.90
28438;DHT22;15667;52.376;9.708;2023-03-23T22:21:05;11.50;99.90
28438;DHT22;15667;52.376;9.708;2023-03-23T22:23:32;11.50;99.90
28438;DHT22;15667;52.376;9.708;2023-03-23T22:25:58;11.50;99.90
28438;DHT22;15667;52.376;9.708;2023-03-23T22:28:26;11.50;99.90
28438;DHT22;15667;52.376;9.708;2023-03-23T22:30:54;11.50;99.90
28438;DHT22;15667;52.376;9.708;2023-03-23T22:33:23;11.50;99.90
28438;DHT22;15667;52.376;9.708;2023-03-23T22:35:49;11.50;99.90
28438;DHT22;15667;52.376;9.708;2023-03-23T22:38:15;11.60;99.90
28438;DHT22;15667;52.376;9.708;2023-03-23T22:40:40;11.60;99.90
28438;DHT22;15667;52.376;9.708;2023-03-23T22:43:07;11.60;99.90
28438;DHT22;15667;52.376;9.708;2023-03-23T22:45:33;11.60;99.90
28438;DHT22;15667;52.376;9.708;2023-03-23T22:47:59;11.60;99.90
28438;DHT22;15667;52.376;9.708;2023-03-23T22:50:25;11.70;99.90
28438;DHT22;15667;52.376;9.708;2023-03-23T22:52:52;11.80;99.90
28438;DHT22;15667;52.376;9.708;2023-03-23T22:55:18;11.80;99.90
28438;DHT22;15667;52.376;9.708;2023-03-23T22:57:44;11.80;99.90
28438;DHT22;15667;52.376;9.708;2023-03-23T23:00:10;11.90;99.90
28438;DHT22;15667;52.376;9.708;2023-03-23T23:02:40;11.80;99.90
28438;DHT22;15667;52.376;9.708;2023-03-23T23:05:06;11.80;99.90
28438;DHT22;15667;52.376;9.708;2023-03-23T23:07:32;11.80;99.90
28438;DHT22;15667;52.376;9.708;2023-03-23T23:09:58;11.80;99.90
28438;DHT22;15667;52.376;9.708;2023-03-23T23:12:23;11.90;99.90
28438;DHT22;15667;52.376;9.708;2023-03-23T23:14:50;11.80;99.90
28438;DHT22;15667;52.376;9.708;2023-03-23T23:17:15;11.90;99.90
28438;DHT22;15667;52.376;9.708;2023-03-23T23:19:41;11.90;99.90
28438;DHT22;15667;52.376;9.708;2023-03-23T23:22:06;11.90;99.90
28438;DHT22;15667;52.376;9.708;2023-03-23T23:24:33;11.90;99.90
28438;DHT22;15667;52.376;9.708;2023-03-23T23:26:58;11.90;99.90
28438;DHT22;15667;52.376;9.708;2023-03-23T23:29:25;11.80;99.90
28438;DHT22;15667;52.376;9.708;2023-03-23T23:31:51;11.80;99.90